AirNav   ATP
 
 742 users online  

8NA0 Tappen Airstrip
Tappen, North Dakota, USA


FAA INFORMATION EFFECTIVE 09 NOVEMBER 2017

Location

FAA Identifier: 8NA0
Lat/Long: 46-52-51.9450N / 099-37-51.3870W
46-52.865750N / 099-37.856450W
46.8810958 / -99.6309408
(estimated)
Elevation: 1780 ft. / 543 m (estimated)
Variation: 08E (1986)
Time zone: UTC -6 (UTC -5 during Daylight Saving Time)
Zip code: 58487

Airport Operations

Airport use: Private use. Permission required prior to landing
Activation date: 04/1986
Control tower: no
ARTCC: MINNEAPOLIS CENTER
FSS: GRAND FORKS FLIGHT SERVICE STATION
Attendance: UNATNDD
Wind indicator: yes
Segmented circle: no

Nearby radio navigation aids

VOR radial/distance  VOR name  Freq  Var
JMSr255/39.2JAMESTOWN VOR/DME114.5010E

Airport Services

Runway Information

Runway 10/28

Dimensions: 2100 x 50 ft. / 640 x 15 m
Surface: turf
RUNWAY 10  RUNWAY 28
Traffic pattern: leftleft
Obstructions: bldgs, 50 ft. from runwaynone

Airport Ownership and Management from official FAA records

Ownership: Privately-owned
Owner: MARVIN BODVIG
RR, BOX 65
TAPPEN, ND 58487
Phone 701-327-4222
Manager: MARVIN BODVIG
RR, BOX 65
TAPPEN, ND 58487
Phone 701-327-4222

Airport Operational Statistics

Aircraft based on the field: 1
Single engine airplanes: 1
    

Additional Remarks

FARMSTEAD AT WEST RWY THR END.

Instrument Procedures

There are no published instrument procedures at 8NA0.

Some nearby airports with instrument procedures:

KJMS - Jamestown Regional Airport (39 nm E)
46D - Carrington Municipal Airport (39 nm NE)
KBIS - Bismarck Municipal Airport (46 nm W)
7L2 - Linton Municipal Airport (47 nm SW)
51D - Edgeley Municipal Airport (49 nm SE)
 
Loc | Ops | Rwys | IFR | FBO | Links
Com | Nav | Svcs | Stats | Notes


 
Area around 8NA0 (Tappen Airstrip)
 
Road maps at: MapQuest Bing Google
 
Aerial photo
No photo
 
Sectional chart

 
Airport distance calculator
Flying to Tappen Airstrip? Find the distance to fly.

From to 8NA0

Sunrise and sunset
Times for 22-Nov-2017
 Local
(UTC-6)
 Zulu
(UTC)
Morning civil twilight07:1913:19
Sunrise07:5313:53
Sunset16:5722:57
Evening civil twilight17:3123:31

Current date and time
Zulu (UTC)  23-Nov-2017 03:20:02
Local (UTC-6)  22-Nov-2017 21:20:02
 
METAR
K46D 
39nm NE 
230255Z AUTO 33005KT 10SM OVC011 M02/M04 A2998 RMK AO2
KJMS 
40nm E 
230256Z AUTO 33010KT 10SM CLR M03/M06 A2994 RMK AO2 SLP164 T10281056 51024
KBIS 
46nm W 
230252Z 06004KT 10SM CLR 02/M03 A2999 RMK AO2 SLP176 T00171033 51026
K7L2 
47nm SW 
230255Z AUTO 34008KT 10SM 02/M03 A2999 RMK AO2
TAF
KJMS 
40nm E 
222238Z 2223/2318 30012KT P6SM SKC FM230600 30007KT 5SM BR SCT001 FM230700 22004KT 1SM BR OVC001 FM231600 19007KT P6SM SCT005
KBIS 
46nm W 
222131Z 2222/2318 31015G25KT P6SM FEW250 FM222300 33012KT P6SM FEW250 FM230200 33007KT P6SM FEW250 FM230900 VRB03KT 5SM BR SCT001 SCT250 FM231500 VRB03KT P6SM FEW250
NOTAMs
Click for the latest NOTAMs
NOTAMs are issued by the DoD/FAA and will open in a separate window not controlled by AirNav.

 

 
 

Would you like to see your business listed on this page?

 If your business provides an interesting product or service to pilots, flight crews, aircraft, or users of the Tappen Airstrip, you should consider listing it here.  To start the listing process, click on the button below
 
Add a business
 

Other Pages about Tappen Airstrip

Update a link
 
Copyright © AirNav, LLC. All rights reserved. Privacy Policy  Contact